createdAt,value
2022-07-25T00:02:20.905Z,16.36
2022-07-25T00:04:49.812Z,16.33
2022-07-25T00:07:18.344Z,16.30
2022-07-25T00:09:46.412Z,16.26
2022-07-25T00:12:15.063Z,16.23
2022-07-25T00:14:43.066Z,16.19
2022-07-25T00:17:11.535Z,16.18
2022-07-25T00:19:39.499Z,16.17
2022-07-25T00:22:07.283Z,16.16
2022-07-25T00:24:35.414Z,16.13
2022-07-25T00:27:03.811Z,16.11
2022-07-25T00:29:31.571Z,16.07
2022-07-25T00:31:59.600Z,16.03
2022-07-25T00:34:27.930Z,15.99
2022-07-25T00:36:55.648Z,15.97
2022-07-25T00:39:24.188Z,15.93
2022-07-25T00:41:52.669Z,15.91
2022-07-25T00:44:29.928Z,15.88
2022-07-25T00:46:59.081Z,15.85
2022-07-25T00:49:27.836Z,15.82
2022-07-25T00:51:56.142Z,15.80
2022-07-25T00:54:23.910Z,15.78
2022-07-25T00:56:52.283Z,15.75
2022-07-25T00:59:20.309Z,15.71
2022-07-25T01:01:49.568Z,15.67
2022-07-25T01:04:17.933Z,15.64
2022-07-25T01:06:46.721Z,15.61
2022-07-25T01:09:14.862Z,15.58
2022-07-25T01:11:43.009Z,15.55
2022-07-25T01:14:10.774Z,15.52
2022-07-25T01:16:38.601Z,15.49
2022-07-25T01:19:07.189Z,15.46
2022-07-25T01:21:40.733Z,15.44
2022-07-25T01:24:10.097Z,15.41
2022-07-25T01:26:38.812Z,15.38
2022-07-25T01:29:07.449Z,15.36
2022-07-25T01:31:35.267Z,15.34
2022-07-25T01:34:03.909Z,15.31
2022-07-25T01:36:32.554Z,15.28
2022-07-25T01:39:00.855Z,15.26
2022-07-25T01:41:29.078Z,15.23
2022-07-25T01:43:56.999Z,15.21
2022-07-25T01:46:25.400Z,15.20
2022-07-25T01:48:53.687Z,15.16
2022-07-25T01:51:22.040Z,15.13
2022-07-25T01:53:49.785Z,15.12
2022-07-25T01:56:21.873Z,15.10
2022-07-25T01:58:50.874Z,15.09
2022-07-25T02:01:19.514Z,15.05
2022-07-25T02:03:50.345Z,15.01
2022-07-25T02:06:19.637Z,15.00
2022-07-25T02:08:47.613Z,14.99
2022-07-25T02:11:16.393Z,14.98
2022-07-25T02:13:45.222Z,14.96
2022-07-25T02:16:13.675Z,14.95
2022-07-25T02:18:41.738Z,14.95
2022-07-25T02:21:14.408Z,14.96
2022-07-25T02:23:44.101Z,14.94
2022-07-25T02:26:13.335Z,14.89
2022-07-25T02:28:41.589Z,14.82
2022-07-25T02:31:10.020Z,14.72
2022-07-25T02:33:38.463Z,14.62
2022-07-25T02:36:07.763Z,14.54
2022-07-25T02:38:36.240Z,14.49
2022-07-25T02:41:07.053Z,14.47
2022-07-25T02:43:35.146Z,14.47
2022-07-25T02:46:03.713Z,14.46
2022-07-25T02:48:32.270Z,14.46
2022-07-25T02:51:00.381Z,14.46
2022-07-25T02:53:47.256Z,14.44
2022-07-25T02:56:16.498Z,14.43
2022-07-25T02:58:44.689Z,14.44
2022-07-25T03:01:13.691Z,14.43
2022-07-25T03:03:41.543Z,14.42
2022-07-25T03:06:09.573Z,14.42
2022-07-25T03:08:37.345Z,14.42
2022-07-25T03:11:05.076Z,14.44
2022-07-25T03:13:33.911Z,14.45
2022-07-25T03:16:01.668Z,14.46
2022-07-25T03:18:29.642Z,14.47
2022-07-25T03:20:57.436Z,14.47
2022-07-25T03:23:27.517Z,14.45
2022-07-25T03:25:56.839Z,14.44
2022-07-25T03:28:25.536Z,14.45
2022-07-25T03:30:53.506Z,14.47
2022-07-25T03:33:21.307Z,14.47
2022-07-25T03:35:49.353Z,14.47
2022-07-25T03:38:17.484Z,14.49
2022-07-25T03:40:45.968Z,14.52
2022-07-25T03:43:14.263Z,14.55
2022-07-25T03:45:42.681Z,14.58
2022-07-25T03:48:11.106Z,14.60
2022-07-25T03:50:39.238Z,14.62
2022-07-25T03:53:07.067Z,14.65
2022-07-25T03:55:39.957Z,14.68
2022-07-25T03:58:07.805Z,14.71
2022-07-25T04:00:35.868Z,14.74
2022-07-25T04:03:03.932Z,14.76
2022-07-25T04:05:31.927Z,14.78
2022-07-25T04:07:59.901Z,14.81
2022-07-25T04:10:27.705Z,14.84
2022-07-25T04:12:55.663Z,14.88
2022-07-25T04:15:23.436Z,14.92
2022-07-25T04:17:51.537Z,14.95
2022-07-25T04:20:20.771Z,14.99
2022-07-25T04:22:48.500Z,15.03
2022-07-25T04:25:18.412Z,15.08
2022-07-25T04:27:46.107Z,15.13
2022-07-25T04:30:23.670Z,15.18
2022-07-25T04:32:53.514Z,15.23
2022-07-25T04:35:21.975Z,15.27
2022-07-25T04:37:50.034Z,15.32
2022-07-25T04:40:18.107Z,15.38
2022-07-25T04:42:45.892Z,15.43
2022-07-25T04:45:17.840Z,15.49
2022-07-25T04:47:46.389Z,15.54
2022-07-25T04:50:14.836Z,15.61
2022-07-25T04:52:43.503Z,15.67
2022-07-25T04:55:11.877Z,15.74
2022-07-25T04:57:40.027Z,15.80
2022-07-25T05:00:11.434Z,15.86
2022-07-25T05:02:39.815Z,15.94
2022-07-25T05:05:09.374Z,16.01
2022-07-25T05:07:51.321Z,16.09
2022-07-25T05:10:19.432Z,16.17
2022-07-25T05:12:47.199Z,16.26
2022-07-25T05:15:15.604Z,16.35
2022-07-25T05:17:43.895Z,16.44
2022-07-25T05:20:14.074Z,16.53
2022-07-25T05:22:43.771Z,16.62
2022-07-25T05:25:12.978Z,16.70
2022-07-25T05:27:41.864Z,16.78
2022-07-25T05:30:12.500Z,16.86
2022-07-25T05:32:41.076Z,16.93
2022-07-25T05:35:10.328Z,17.02
2022-07-25T05:37:39.164Z,17.11
2022-07-25T05:40:08.580Z,17.20
2022-07-25T05:42:36.572Z,17.30
2022-07-25T05:45:04.797Z,17.39
2022-07-25T05:47:33.355Z,17.48
2022-07-25T05:50:02.806Z,17.60
2022-07-25T05:52:30.810Z,17.70
2022-07-25T05:55:00.400Z,17.80
2022-07-25T05:57:28.129Z,17.90
2022-07-25T05:59:56.210Z,18.00
2022-07-25T06:02:24.084Z,18.08
2022-07-25T06:04:52.383Z,18.16
2022-07-25T06:07:20.521Z,18.24
2022-07-25T06:09:48.245Z,18.32
2022-07-25T06:12:16.282Z,18.41
2022-07-25T06:14:44.324Z,18.49
2022-07-25T06:17:12.254Z,18.57
2022-07-25T06:19:39.963Z,18.68
2022-07-25T06:22:09.656Z,18.77
2022-07-25T06:24:38.428Z,18.87
2022-07-25T06:27:08.456Z,18.95
2022-07-25T06:29:37.809Z,19.03
2022-07-25T06:32:06.535Z,19.12
2022-07-25T06:34:36.220Z,19.22
2022-07-25T06:37:04.876Z,19.31
2022-07-25T06:39:32.845Z,19.41
2022-07-25T06:42:02.094Z,19.54
2022-07-25T06:44:34.592Z,19.64
2022-07-25T06:47:04.192Z,19.75
2022-07-25T06:49:32.370Z,19.81
2022-07-25T06:52:00.296Z,19.87
2022-07-25T06:54:30.538Z,19.93
2022-07-25T06:56:58.967Z,20.01
2022-07-25T06:59:27.144Z,20.08
2022-07-25T07:01:55.130Z,20.13
2022-07-25T07:04:23.766Z,20.21
2022-07-25T07:06:51.770Z,20.29
2022-07-25T07:09:19.454Z,20.53
2022-07-25T07:11:47.569Z,21.84
2022-07-25T07:14:15.532Z,23.82
2022-07-25T07:16:43.451Z,25.87
2022-07-25T07:19:11.679Z,27.80
2022-07-25T07:21:39.515Z,29.55
2022-07-25T07:24:23.329Z,31.14
2022-07-25T07:26:54.123Z,32.70
2022-07-25T07:29:21.983Z,33.84
2022-07-25T07:31:50.447Z,34.95
2022-07-25T07:34:18.336Z,36.16
2022-07-25T07:36:46.098Z,37.29
2022-07-25T07:39:13.868Z,38.23
2022-07-25T07:41:43.400Z,39.17
2022-07-25T07:44:12.459Z,39.89
2022-07-25T07:46:40.817Z,40.20
2022-07-25T07:49:09.085Z,40.79
2022-07-25T07:51:37.733Z,41.43
2022-07-25T07:54:24.168Z,41.64
2022-07-25T07:56:51.923Z,41.79
2022-07-25T07:59:19.668Z,42.14
2022-07-25T08:01:47.510Z,42.68
2022-07-25T08:04:16.051Z,43.05
2022-07-25T08:06:43.771Z,43.46
2022-07-25T08:09:11.559Z,43.75
2022-07-25T08:11:39.490Z,44.16
2022-07-25T08:14:07.774Z,44.80
2022-07-25T08:16:36.004Z,45.35
2022-07-25T08:19:03.790Z,45.24
2022-07-25T08:21:31.565Z,45.05
2022-07-25T08:23:59.309Z,44.86
2022-07-25T08:26:28.277Z,45.24
2022-07-25T08:29:17.471Z,45.62
2022-07-25T08:31:45.247Z,45.82
2022-07-25T08:34:13.894Z,46.03
2022-07-25T08:36:42.398Z,46.48
2022-07-25T08:39:10.654Z,46.92
2022-07-25T08:41:41.968Z,47.14
2022-07-25T08:44:11.041Z,47.46
2022-07-25T08:46:42.111Z,47.63
2022-07-25T08:49:10.931Z,47.94
2022-07-25T08:51:40.352Z,48.30
2022-07-25T08:54:10.165Z,48.35
2022-07-25T08:56:38.419Z,48.53
2022-07-25T08:59:07.023Z,48.86
2022-07-25T09:01:35.274Z,49.08
2022-07-25T09:04:04.892Z,49.32
2022-07-25T09:06:35.365Z,49.57
2022-07-25T09:09:05.267Z,49.63
2022-07-25T09:11:38.198Z,49.55
2022-07-25T09:14:11.081Z,49.33
2022-07-25T09:16:45.642Z,49.15
2022-07-25T09:19:20.976Z,49.05
2022-07-25T09:22:06.179Z,49.27
2022-07-25T09:24:36.037Z,49.05
2022-07-25T09:27:12.504Z,49.03
2022-07-25T09:29:45.638Z,48.85
2022-07-25T09:32:19.397Z,48.73
2022-07-25T09:34:49.418Z,48.86
2022-07-25T09:37:20.470Z,49.05
2022-07-25T09:39:51.271Z,49.00
2022-07-25T09:42:23.709Z,48.88
2022-07-25T09:44:59.184Z,48.64
2022-07-25T09:47:27.801Z,48.57
2022-07-25T09:49:57.495Z,48.61
2022-07-25T09:52:26.207Z,48.59
2022-07-25T09:54:55.175Z,48.46
2022-07-25T09:57:26.278Z,48.39
2022-07-25T09:59:54.942Z,48.03
2022-07-25T10:02:47.259Z,47.73
2022-07-25T10:05:24.021Z,46.82
2022-07-25T10:07:54.622Z,45.24
2022-07-25T10:10:25.497Z,43.58
2022-07-25T10:13:15.886Z,42.16
2022-07-25T10:15:53.396Z,40.83
2022-07-25T10:18:25.193Z,39.81
2022-07-25T10:20:57.514Z,39.00
2022-07-25T10:23:28.198Z,38.35
2022-07-25T10:26:19.973Z,37.71
2022-07-25T10:28:51.143Z,36.90
2022-07-25T10:31:31.657Z,36.26
2022-07-25T10:34:03.114Z,35.70
2022-07-25T10:36:51.703Z,35.15
2022-07-25T10:39:21.574Z,34.46
2022-07-25T10:42:00.967Z,34.03
2022-07-25T10:44:44.482Z,33.67
2022-07-25T10:47:14.932Z,33.31
2022-07-25T10:50:13.273Z,32.96
2022-07-25T10:52:42.703Z,32.60
2022-07-25T10:55:11.117Z,32.35
2022-07-25T10:57:49.683Z,32.06
2022-07-25T11:00:23.195Z,31.76
2022-07-25T11:02:51.673Z,31.48
2022-07-25T11:05:19.750Z,31.23
2022-07-25T11:08:20.779Z,31.05
2022-07-25T11:10:52.520Z,30.90
2022-07-25T11:13:20.866Z,30.67
2022-07-25T11:15:49.836Z,30.48
2022-07-25T11:18:18.876Z,30.35
2022-07-25T11:20:47.715Z,30.26
2022-07-25T11:23:22.319Z,30.17
2022-07-25T11:25:51.679Z,30.01
2022-07-25T11:28:20.214Z,29.81
2022-07-25T11:30:47.915Z,29.68
2022-07-25T11:33:17.592Z,29.57
2022-07-25T11:35:46.646Z,29.49
2022-07-25T11:38:15.503Z,29.43
2022-07-25T11:40:44.829Z,29.32
2022-07-25T11:43:21.924Z,29.23
2022-07-25T11:45:58.839Z,29.21
2022-07-25T11:48:32.857Z,29.17
2022-07-25T11:51:18.413Z,29.05
2022-07-25T11:53:51.141Z,28.81
2022-07-25T11:56:41.740Z,28.60
2022-07-25T11:59:11.342Z,28.47
2022-07-25T12:01:41.872Z,28.40
2022-07-25T12:04:16.220Z,28.39
2022-07-25T12:06:46.468Z,28.40
2022-07-25T12:09:19.218Z,28.43
2022-07-25T12:11:49.695Z,28.39
2022-07-25T12:14:17.838Z,28.28
2022-07-25T12:16:46.945Z,28.16
2022-07-25T12:19:20.849Z,28.13
2022-07-25T12:21:48.912Z,28.10
2022-07-25T12:24:17.068Z,28.06
2022-07-25T12:26:44.876Z,28.05
2022-07-25T12:29:13.147Z,28.06
2022-07-25T12:31:41.200Z,28.06
2022-07-25T12:34:09.132Z,28.09
2022-07-25T12:36:44.400Z,28.14
2022-07-25T12:39:13.107Z,28.17
2022-07-25T12:41:42.657Z,28.22
2022-07-25T12:44:12.326Z,28.26
2022-07-25T12:46:49.115Z,28.30
2022-07-25T12:49:18.479Z,28.33
2022-07-25T12:51:47.464Z,28.31
2022-07-25T12:54:22.132Z,28.28
2022-07-25T12:56:51.978Z,28.29
2022-07-25T12:59:19.991Z,28.30
2022-07-25T13:01:48.804Z,28.30
2022-07-25T13:04:16.929Z,28.31
2022-07-25T13:06:45.099Z,28.34
2022-07-25T13:09:13.690Z,28.37
2022-07-25T13:11:42.916Z,28.39
2022-07-25T13:14:11.578Z,28.34
2022-07-25T13:16:39.658Z,28.33
2022-07-25T13:19:08.981Z,28.34
2022-07-25T13:21:37.611Z,28.34
2022-07-25T13:24:07.456Z,28.34
2022-07-25T13:26:36.912Z,28.33
2022-07-25T13:29:12.483Z,28.25
2022-07-25T13:31:43.035Z,28.17
2022-07-25T13:34:11.218Z,28.08
2022-07-25T13:36:40.047Z,28.03
2022-07-25T13:39:09.388Z,28.01
2022-07-25T13:41:38.095Z,28.01
2022-07-25T13:44:06.403Z,28.01
2022-07-25T13:46:36.597Z,28.02
2022-07-25T13:49:06.097Z,28.02
2022-07-25T13:51:34.986Z,28.01
2022-07-25T13:54:04.743Z,28.01
2022-07-25T13:56:33.557Z,28.01
2022-07-25T13:59:03.169Z,28.02
2022-07-25T14:01:31.603Z,28.02
2022-07-25T14:04:00.634Z,28.03
2022-07-25T14:06:28.867Z,28.05
2022-07-25T14:08:56.678Z,28.08
2022-07-25T14:11:30.173Z,28.09
2022-07-25T14:13:59.937Z,28.11
2022-07-25T14:16:28.524Z,28.12
2022-07-25T14:18:56.924Z,28.13
2022-07-25T14:21:25.429Z,28.14
2022-07-25T14:23:53.916Z,28.12
2022-07-25T14:26:21.829Z,28.11
2022-07-25T14:28:50.013Z,28.09
2022-07-25T14:31:17.867Z,28.07
2022-07-25T14:33:45.664Z,28.05
2022-07-25T14:36:13.858Z,28.04
2022-07-25T14:38:41.663Z,28.03
2022-07-25T14:41:13.071Z,28.05
2022-07-25T14:43:41.887Z,28.06
2022-07-25T14:46:10.134Z,28.05
2022-07-25T14:48:38.589Z,28.05
2022-07-25T14:51:07.057Z,28.03
2022-07-25T14:53:35.474Z,28.03
2022-07-25T14:56:05.185Z,28.02
2022-07-25T14:58:33.675Z,28.00
2022-07-25T15:01:02.138Z,27.96
2022-07-25T15:03:30.247Z,27.94
2022-07-25T15:05:58.288Z,27.92
2022-07-25T15:08:26.339Z,27.90
2022-07-25T15:10:54.127Z,27.87
2022-07-25T15:13:31.532Z,27.85
2022-07-25T15:16:00.363Z,27.82
2022-07-25T15:18:28.578Z,27.80
2022-07-25T15:20:56.352Z,27.80
2022-07-25T15:23:25.526Z,27.81
2022-07-25T15:26:01.268Z,27.79
2022-07-25T15:28:33.668Z,27.75
2022-07-25T15:31:01.558Z,27.72
2022-07-25T15:33:30.208Z,27.70
2022-07-25T15:35:58.492Z,27.68
2022-07-25T15:38:26.445Z,27.68
2022-07-25T15:40:54.252Z,27.67
2022-07-25T15:43:22.012Z,27.65
2022-07-25T15:45:50.674Z,27.63
2022-07-25T15:48:19.430Z,27.60
2022-07-25T15:50:51.893Z,27.57
2022-07-25T15:53:19.930Z,27.56
2022-07-25T15:55:47.865Z,27.55
2022-07-25T15:58:16.555Z,27.55
2022-07-25T16:00:44.455Z,27.55
2022-07-25T16:03:14.773Z,27.53
2022-07-25T16:05:43.728Z,27.52
2022-07-25T16:08:11.508Z,27.50
2022-07-25T16:10:40.082Z,27.48
2022-07-25T16:13:07.871Z,27.46
2022-07-25T16:15:35.711Z,27.45
2022-07-25T16:18:04.498Z,27.45
2022-07-25T16:20:34.219Z,27.46
2022-07-25T16:23:03.713Z,27.47
2022-07-25T16:25:31.510Z,27.48
2022-07-25T16:28:01.090Z,27.47
2022-07-25T16:30:30.729Z,27.47
2022-07-25T16:33:00.087Z,27.45
2022-07-25T16:35:29.727Z,27.45
2022-07-25T16:37:57.511Z,27.45
2022-07-25T16:40:31.015Z,27.44
2022-07-25T16:42:59.986Z,27.41
2022-07-25T16:45:31.432Z,27.38
2022-07-25T16:47:59.226Z,27.36
2022-07-25T16:50:28.673Z,27.34
2022-07-25T16:52:56.466Z,27.33
2022-07-25T16:55:24.263Z,27.30
2022-07-25T16:57:53.707Z,27.28
2022-07-25T17:00:23.566Z,27.26
2022-07-25T17:02:53.143Z,27.23
2022-07-25T17:05:21.109Z,27.21
2022-07-25T17:07:58.932Z,27.19
2022-07-25T17:10:30.237Z,27.18
2022-07-25T17:12:59.617Z,27.16
2022-07-25T17:15:27.581Z,27.13
2022-07-25T17:17:55.576Z,27.11
2022-07-25T17:20:25.085Z,27.08
2022-07-25T17:22:53.616Z,27.05
2022-07-25T17:25:23.031Z,27.03
2022-07-25T17:27:52.401Z,27.01
2022-07-25T17:30:20.255Z,26.98
2022-07-25T17:32:48.213Z,26.96
2022-07-25T17:35:17.917Z,26.93
2022-07-25T17:37:47.550Z,26.90
2022-07-25T17:40:15.516Z,26.87
2022-07-25T17:42:48.987Z,26.85
2022-07-25T17:45:18.491Z,26.81
2022-07-25T17:47:47.385Z,26.78
2022-07-25T17:50:18.630Z,26.75
2022-07-25T17:52:46.609Z,26.71
2022-07-25T17:55:14.601Z,26.67
2022-07-25T17:57:46.127Z,26.63
2022-07-25T18:00:14.320Z,26.58
2022-07-25T18:02:43.864Z,26.53
2022-07-25T18:05:13.403Z,26.47
2022-07-25T18:07:47.409Z,26.43
2022-07-25T18:10:18.198Z,26.38
2022-07-25T18:12:46.207Z,26.34
2022-07-25T18:15:15.759Z,26.28
2022-07-25T18:17:46.515Z,26.21
2022-07-25T18:20:17.175Z,26.15
2022-07-25T18:22:47.103Z,26.07
2022-07-25T18:25:17.019Z,25.98
2022-07-25T18:27:46.886Z,25.87
2022-07-25T18:30:16.023Z,25.74
2022-07-25T18:32:44.074Z,25.66
2022-07-25T18:35:11.912Z,25.60
2022-07-25T18:37:40.275Z,25.53
2022-07-25T18:40:08.900Z,25.47
2022-07-25T18:42:36.940Z,25.41
2022-07-25T18:45:06.137Z,25.36
2022-07-25T18:47:35.116Z,25.32
2022-07-25T18:50:05.104Z,25.27
2022-07-25T18:52:37.779Z,25.22
2022-07-25T18:55:09.477Z,25.18
2022-07-25T18:57:38.864Z,25.14
2022-07-25T19:00:09.562Z,25.10
2022-07-25T19:02:38.970Z,25.04
2022-07-25T19:05:09.582Z,24.97
2022-07-25T19:07:40.711Z,24.91
2022-07-25T19:10:11.039Z,24.85
2022-07-25T19:12:40.930Z,24.79
2022-07-25T19:15:08.972Z,24.73
2022-07-25T19:17:38.746Z,24.66
2022-07-25T19:20:09.106Z,24.59
2022-07-25T19:22:38.545Z,24.51
2022-07-25T19:25:08.609Z,24.45
2022-07-25T19:27:39.193Z,24.39
2022-07-25T19:30:13.881Z,24.32
2022-07-25T19:32:48.794Z,24.23
2022-07-25T19:35:25.905Z,24.13
2022-07-25T19:37:57.375Z,24.05
2022-07-25T19:40:26.830Z,24.00
2022-07-25T19:42:55.853Z,23.93
2022-07-25T19:45:25.784Z,23.88
2022-07-25T19:47:55.342Z,23.81
2022-07-25T19:50:24.384Z,23.71
2022-07-25T19:52:53.853Z,23.61
2022-07-25T20:51:24.468Z,21.97
2022-07-25T20:53:53.744Z,21.90
2022-07-25T20:56:21.629Z,21.83
2022-07-25T20:58:49.844Z,21.77
2022-07-25T21:01:17.811Z,21.71
2022-07-25T21:03:45.951Z,21.65
2022-07-25T21:06:13.917Z,21.59
2022-07-25T21:08:42.807Z,21.54
2022-07-25T21:11:10.863Z,21.48
2022-07-25T21:13:38.953Z,21.42
2022-07-25T21:16:07.020Z,21.38
2022-07-25T21:18:34.887Z,21.34
2022-07-25T21:21:02.856Z,21.29
2022-07-25T21:23:30.955Z,21.24
2022-07-25T21:26:00.350Z,21.21
2022-07-25T21:28:28.227Z,21.17
2022-07-25T21:30:56.162Z,21.14
2022-07-25T21:33:23.956Z,21.09
2022-07-25T21:35:53.753Z,21.05
2022-07-25T21:38:26.990Z,21.01
2022-07-25T21:40:57.543Z,20.98
2022-07-25T21:43:25.733Z,20.95
2022-07-25T21:45:54.002Z,20.91
2022-07-25T21:48:43.175Z,20.88
2022-07-25T21:51:14.107Z,20.83
2022-07-25T21:53:48.101Z,20.79
2022-07-25T21:56:16.528Z,20.74
2022-07-25T21:58:45.045Z,20.68
2022-07-25T22:01:13.448Z,20.61
2022-07-25T22:03:42.199Z,20.56
2022-07-25T22:06:10.845Z,20.52
2022-07-25T22:08:39.783Z,20.47
2022-07-25T22:11:20.858Z,20.44
2022-07-25T22:13:56.150Z,20.39
2022-07-25T22:16:24.393Z,20.36
2022-07-25T22:18:52.962Z,20.34
2022-07-25T22:21:20.926Z,20.33
2022-07-25T22:23:49.765Z,20.31
2022-07-25T22:26:18.449Z,20.29
2022-07-25T22:28:47.804Z,20.28
2022-07-25T22:31:16.965Z,20.27
2022-07-25T22:33:45.324Z,20.27
2022-07-25T22:36:13.399Z,20.27
2022-07-25T22:38:43.241Z,20.25
2022-07-25T22:41:12.230Z,20.25
2022-07-25T22:43:57.278Z,20.23
2022-07-25T22:46:31.351Z,20.21
2022-07-25T22:49:00.923Z,20.18
2022-07-25T22:51:31.106Z,20.12
2022-07-25T22:54:02.364Z,20.08
2022-07-25T22:56:31.912Z,20.04
2022-07-25T22:59:01.978Z,20.00
2022-07-25T23:01:30.971Z,19.96
2022-07-25T23:04:01.278Z,19.93
2022-07-25T23:06:31.414Z,19.89
2022-07-25T23:09:00.404Z,19.87
2022-07-25T23:11:29.402Z,19.84
2022-07-25T23:13:59.618Z,19.82
2022-07-25T23:16:30.244Z,19.80
2022-07-25T23:18:59.242Z,19.77
2022-07-25T23:21:28.133Z,19.74
2022-07-25T23:23:59.487Z,19.71
2022-07-25T23:26:30.182Z,19.69
2022-07-25T23:28:58.645Z,19.67
2022-07-25T23:31:28.233Z,19.64
2022-07-25T23:33:58.420Z,19.60
2022-07-25T23:36:26.495Z,19.58
2022-07-25T23:38:54.530Z,19.56
2022-07-25T23:41:22.225Z,19.51
2022-07-25T23:43:59.379Z,19.49
2022-07-25T23:46:31.146Z,19.46
2022-07-25T23:49:02.046Z,19.42
2022-07-25T23:51:30.687Z,19.39
2022-07-25T23:54:00.338Z,19.37
2022-07-25T23:56:29.664Z,19.34
2022-07-25T23:58:58.935Z,19.31
